createdAt,value
2019-01-21T05:11:14.547Z,36.77
2019-01-21T05:14:55.323Z,33.67
2019-01-21T05:18:09.034Z,34.17
2019-01-21T05:21:06.383Z,32.43
2019-01-21T05:23:58.093Z,32.93
2019-01-21T05:27:17.469Z,31.60
2019-01-21T05:30:42.587Z,30.27
2019-01-21T05:33:57.672Z,32.70
2019-01-21T05:36:53.216Z,32.40
2019-01-21T05:39:49.692Z,31.17
2019-01-21T05:42:56.201Z,32.03
2019-01-21T05:46:03.824Z,34.40
2019-01-21T05:48:58.538Z,34.97
2019-01-21T05:52:07.407Z,37.47
2019-01-21T05:55:31.814Z,36.13
2019-01-21T05:58:50.478Z,36.47
2019-01-21T06:02:22.051Z,34.70
2019-01-21T06:05:26.206Z,34.93
2019-01-21T06:08:37.565Z,34.03
2019-01-21T06:11:23.978Z,35.07
2019-01-21T06:14:34.361Z,34.30
2019-01-21T06:17:21.587Z,31.93
2019-01-21T06:20:43.930Z,35.30
2019-01-21T06:23:49.104Z,33.40
2019-01-21T06:26:58.671Z,35.57
2019-01-21T06:29:57.081Z,34.40
2019-01-21T06:33:04.409Z,38.43
2019-01-21T06:36:18.177Z,38.47
2019-01-21T06:39:26.592Z,35.97
2019-01-21T06:42:22.530Z,35.30
2019-01-21T06:45:28.322Z,35.03
2019-01-21T06:48:52.829Z,42.37
2019-01-21T06:52:11.991Z,50.63
2019-01-21T06:55:20.735Z,38.93
2019-01-21T06:58:08.458Z,36.13
2019-01-21T07:01:18.948Z,32.80
2019-01-21T07:04:53.627Z,33.57
2019-01-21T07:07:50.199Z,31.20
2019-01-21T07:11:03.028Z,31.10
2019-01-21T07:14:14.998Z,28.90
2019-01-21T07:17:07.020Z,27.87
2019-01-21T07:20:10.980Z,27.17
2019-01-21T07:23:39.629Z,28.37
2019-01-21T07:26:26.569Z,27.13
2019-01-21T07:29:30.818Z,26.77
2019-01-21T07:32:27.505Z,27.17
2019-01-21T07:35:42.091Z,27.17
2019-01-21T07:38:37.579Z,27.60
2019-01-21T07:41:26.674Z,26.03
2019-01-21T07:44:05.021Z,24.67
2019-01-21T07:47:04.412Z,25.83
2019-01-21T07:50:16.526Z,24.90
2019-01-21T07:53:13.158Z,24.33
2019-01-21T07:55:59.699Z,23.77
2019-01-21T07:59:04.789Z,24.80
2019-01-21T08:01:40.338Z,23.37
2019-01-21T08:04:53.037Z,25.27
2019-01-21T08:07:47.723Z,24.93
2019-01-21T08:10:58.254Z,23.87
2019-01-21T08:13:39.497Z,22.83
2019-01-21T08:17:01.104Z,24.10
2019-01-21T08:19:55.995Z,24.63
2019-01-21T08:22:47.683Z,23.73
2019-01-21T08:25:33.804Z,22.97
2019-01-21T08:28:32.142Z,22.13
2019-01-21T08:32:03.565Z,22.27
2019-01-21T08:35:05.632Z,23.27
2019-01-21T08:38:06.478Z,23.80
2019-01-21T08:41:14.333Z,23.73
2019-01-21T08:44:48.860Z,23.33
2019-01-21T08:47:43.486Z,22.10
2019-01-21T08:50:24.972Z,24.17
2019-01-21T08:53:25.752Z,23.90
2019-01-21T08:56:51.216Z,23.73
2019-01-21T08:59:46.053Z,22.30
2019-01-21T09:02:52.401Z,23.43
2019-01-21T09:06:08.594Z,22.90
2019-01-21T09:09:06.825Z,23.00
2019-01-21T09:12:08.322Z,22.83
2019-01-21T09:15:24.731Z,23.03
2019-01-21T09:18:34.438Z,23.23
2019-01-21T09:21:27.105Z,23.87
2019-01-21T09:24:39.267Z,22.80
2019-01-21T09:27:26.560Z,21.00
2019-01-21T09:30:39.837Z,22.77
2019-01-21T09:33:35.259Z,22.40
2019-01-21T09:36:51.956Z,23.27
2019-01-21T09:40:02.437Z,22.03
2019-01-21T09:43:03.334Z,22.37
2019-01-21T09:46:08.025Z,22.33
2019-01-21T09:48:35.828Z,23.97
2019-01-21T09:51:07.025Z,23.87
2019-01-21T09:53:37.798Z,23.77
2019-01-21T09:56:07.899Z,22.33
2019-01-21T09:58:38.278Z,22.50
2019-01-21T10:01:09.163Z,21.30
2019-01-21T10:03:39.079Z,24.10
2019-01-21T10:06:10.435Z,22.63
2019-01-21T10:08:59.377Z,22.43
2019-01-21T10:12:14.870Z,22.20
2019-01-21T10:15:17.056Z,22.83
2019-01-21T10:18:20.708Z,21.63
2019-01-21T10:21:28.282Z,21.90
2019-01-21T10:24:20.394Z,22.80
2019-01-21T10:27:28.520Z,23.37
2019-01-21T10:30:40.546Z,22.07
2019-01-21T10:34:01.085Z,22.63
2019-01-21T10:37:25.450Z,23.57
2019-01-21T10:40:25.707Z,22.07
2019-01-21T10:43:10.506Z,22.00
2019-01-21T10:46:24.097Z,23.03
2019-01-21T10:49:30.706Z,22.67
2019-01-21T10:52:59.172Z,22.67
2019-01-21T10:55:37.704Z,22.87
2019-01-21T10:58:29.840Z,22.67
2019-01-21T11:01:46.755Z,23.20
2019-01-21T11:04:52.241Z,21.63
2019-01-21T11:08:03.855Z,23.47
2019-01-21T11:11:04.310Z,22.63
2019-01-21T11:13:55.605Z,22.23
2019-01-21T11:16:51.528Z,22.37
2019-01-21T11:19:50.690Z,23.53
2019-01-21T11:22:32.448Z,22.90
2019-01-21T11:25:46.205Z,23.77
2019-01-21T11:28:36.285Z,21.70
2019-01-21T11:31:38.112Z,23.73
2019-01-21T11:34:32.807Z,22.20
2019-01-21T11:37:27.508Z,23.43
2019-01-21T11:40:28.255Z,24.43
2019-01-21T11:43:53.582Z,23.40
2019-01-21T11:46:53.590Z,24.60
2019-01-21T11:49:31.851Z,23.33
2019-01-21T11:52:53.836Z,24.43
2019-01-21T11:55:55.085Z,23.53
2019-01-21T11:59:19.884Z,26.70
2019-01-21T12:02:24.790Z,23.53
2019-01-21T12:05:03.338Z,23.63
2019-01-21T12:08:22.942Z,23.47
2019-01-21T12:11:39.033Z,24.13
2019-01-21T12:14:31.164Z,24.30
2019-01-21T12:17:40.650Z,24.37
2019-01-21T12:20:43.789Z,23.37
2019-01-21T12:23:44.008Z,24.93
2019-01-21T12:26:43.260Z,23.77
2019-01-21T12:30:10.645Z,23.40
2019-01-21T12:33:27.360Z,24.33
2019-01-21T12:36:42.615Z,23.90
2019-01-21T12:39:56.860Z,25.17
2019-01-21T12:43:02.223Z,23.80
2019-01-21T12:46:24.973Z,23.70
2019-01-21T12:49:16.249Z,25.03
2019-01-21T12:52:01.336Z,24.63
2019-01-21T12:55:05.104Z,23.53
2019-01-21T12:57:57.766Z,24.47
2019-01-21T13:00:39.395Z,25.27
2019-01-21T13:03:18.670Z,25.63
2019-01-21T13:06:20.710Z,26.90
2019-01-21T13:09:13.824Z,23.87
2019-01-21T13:12:15.884Z,23.30
2019-01-21T13:15:15.464Z,24.10
2019-01-21T13:18:11.297Z,23.70
2019-01-21T13:21:06.603Z,24.13
2019-01-21T13:24:01.780Z,23.43
2019-01-21T13:26:53.452Z,24.40
2019-01-21T13:29:34.106Z,29.65
2019-01-21T13:32:43.339Z,27.57
2019-01-21T13:35:45.704Z,25.50
2019-01-21T13:39:09.870Z,26.07
2019-01-21T13:42:15.904Z,25.17
2019-01-21T13:45:08.677Z,24.37
2019-01-21T13:47:59.379Z,25.00
2019-01-21T13:50:38.555Z,25.50
2019-01-21T13:54:07.093Z,24.77
2019-01-21T13:56:47.105Z,25.37
2019-01-21T13:59:41.167Z,25.27
2019-01-21T14:02:51.342Z,24.77
2019-01-21T14:05:52.392Z,24.40
2019-01-21T14:08:40.469Z,25.30
2019-01-21T14:11:42.323Z,24.47
2019-01-21T14:14:44.255Z,25.53
2019-01-21T14:17:45.823Z,24.33
2019-01-21T14:20:43.608Z,25.93
2019-01-21T14:23:39.175Z,26.37
2019-01-21T14:26:40.992Z,24.43
2019-01-21T14:29:50.699Z,26.13
2019-01-21T14:32:49.210Z,25.40
2019-01-21T14:35:35.972Z,26.47
2019-01-21T14:38:40.913Z,25.83
2019-01-21T14:41:39.542Z,24.90
2019-01-21T14:44:51.457Z,25.37
2019-01-21T14:48:16.781Z,24.70
2019-01-21T14:51:41.117Z,26.20
2019-01-21T14:54:30.516Z,26.30
2019-01-21T14:57:35.664Z,25.93
2019-01-21T15:00:37.857Z,26.23
2019-01-21T15:03:45.351Z,25.97
2019-01-21T15:06:44.975Z,27.63
2019-01-21T15:10:03.576Z,26.50
2019-01-21T15:12:46.104Z,26.80
2019-01-21T15:15:58.476Z,27.23
2019-01-21T15:18:44.986Z,26.87
2019-01-21T15:21:25.166Z,27.73
2019-01-21T15:24:29.168Z,27.53
2019-01-21T15:27:40.305Z,26.53
2019-01-21T15:30:24.787Z,26.83
2019-01-21T15:33:25.595Z,27.33
2019-01-21T15:36:30.604Z,26.97
2019-01-21T15:39:35.999Z,27.10
2019-01-21T15:42:31.354Z,26.47
2019-01-21T15:45:22.375Z,27.23
2019-01-21T15:48:42.030Z,28.43
2019-01-21T15:51:50.813Z,26.73
2019-01-21T15:55:04.258Z,26.70
2019-01-21T15:57:46.683Z,28.03
2019-01-21T16:00:55.305Z,28.27
2019-01-21T16:04:07.160Z,27.73
2019-01-21T16:07:25.710Z,27.10
2019-01-21T16:10:21.497Z,27.13
2019-01-21T16:13:17.546Z,27.00
2019-01-21T16:16:35.902Z,27.80
2019-01-21T16:19:15.313Z,29.23
2019-01-21T16:22:07.007Z,28.10
2019-01-21T16:25:10.231Z,29.00
2019-01-21T16:28:35.967Z,35.45
2019-01-21T16:31:34.466Z,28.93
2019-01-21T16:34:49.888Z,28.10
2019-01-21T16:37:55.027Z,29.13
2019-01-21T16:40:45.514Z,29.10
2019-01-21T16:43:14.921Z,28.40
2019-01-21T16:45:44.118Z,29.13
2019-01-21T16:48:13.401Z,31.13
2019-01-21T16:50:42.656Z,32.83
2019-01-21T16:53:11.944Z,32.93
2019-01-21T16:55:41.281Z,31.80
2019-01-21T16:58:10.887Z,29.83
2019-01-21T17:00:40.451Z,29.57
2019-01-21T17:03:09.791Z,29.00
2019-01-21T17:05:39.280Z,27.83
2019-01-21T17:08:10.955Z,28.43
2019-01-21T17:10:40.228Z,30.30
2019-01-21T17:13:09.564Z,30.40
2019-01-21T17:15:38.842Z,29.40
2019-01-21T17:18:08.401Z,30.33
2019-01-21T17:20:38.208Z,28.43
2019-01-21T17:23:07.580Z,27.77
2019-01-21T17:25:37.001Z,28.60
2019-01-21T17:28:06.366Z,29.00
2019-01-21T17:30:35.703Z,30.07
2019-01-21T17:33:05.269Z,29.13
2019-01-21T17:35:34.568Z,29.77
2019-01-21T17:38:04.156Z,29.33
2019-01-21T17:40:33.585Z,30.57
2019-01-21T17:43:02.802Z,31.13
2019-01-21T17:45:32.069Z,31.10
2019-01-21T17:48:01.267Z,31.60
2019-01-21T17:50:30.491Z,32.30
2019-01-21T17:52:59.808Z,31.03
2019-01-21T17:55:29.064Z,33.20
2019-01-21T17:57:58.272Z,36.13
2019-01-21T18:00:27.551Z,34.13
2019-01-21T18:02:56.830Z,35.40
2019-01-21T18:05:26.106Z,33.93
2019-01-21T18:07:55.416Z,34.33
2019-01-21T18:10:24.641Z,33.70
2019-01-21T18:12:54.015Z,33.17
2019-01-21T18:15:23.346Z,33.67
2019-01-21T18:17:52.722Z,34.13
2019-01-21T18:20:25.768Z,33.90
2019-01-21T18:22:54.975Z,36.03
2019-01-21T18:25:24.371Z,35.27
2019-01-21T18:27:53.848Z,36.27
2019-01-21T18:30:26.126Z,37.13
2019-01-21T18:32:55.484Z,35.70
2019-01-21T18:35:24.893Z,36.30
2019-01-21T18:37:54.730Z,36.30
2019-01-21T18:40:24.646Z,36.47
2019-01-21T18:42:53.950Z,35.13
2019-01-21T18:45:26.341Z,36.37
2019-01-21T18:47:57.200Z,35.97
2019-01-21T18:50:26.444Z,35.27
2019-01-21T18:52:56.054Z,37.40
2019-01-21T18:55:25.274Z,36.07
2019-01-21T18:57:56.068Z,35.97
2019-01-21T19:00:27.129Z,35.37
2019-01-21T19:02:56.673Z,36.43
2019-01-21T19:05:26.535Z,35.53
2019-01-21T19:07:55.728Z,35.07
2019-01-21T19:10:25.034Z,35.13
2019-01-21T19:12:54.355Z,37.37
2019-01-21T19:15:29.315Z,35.50
2019-01-21T19:17:58.607Z,33.87
2019-01-21T19:20:27.999Z,33.63
2019-01-21T19:22:57.296Z,34.13
2019-01-21T19:25:28.125Z,34.97
2019-01-21T19:27:57.681Z,34.47
2019-01-21T19:30:28.181Z,35.47
2019-01-21T19:32:57.470Z,34.93
2019-01-21T19:35:32.503Z,35.87
2019-01-21T19:38:01.905Z,34.60
2019-01-21T19:40:32.227Z,35.13
2019-01-21T19:43:02.400Z,36.30
2019-01-21T19:45:33.156Z,35.70
2019-01-21T19:48:02.387Z,35.07
2019-01-21T19:50:31.777Z,35.23
2019-01-21T19:53:01.105Z,35.47
2019-01-21T19:55:39.172Z,39.03
2019-01-21T19:58:13.362Z,38.30
2019-01-21T20:00:43.289Z,38.30
2019-01-21T20:03:12.633Z,38.00
2019-01-21T20:05:41.970Z,39.17
2019-01-21T20:08:11.286Z,37.90
2019-01-21T20:10:41.017Z,37.83
2019-01-21T20:13:10.236Z,37.27
2019-01-21T20:15:39.556Z,37.43
2019-01-21T20:18:08.902Z,36.73
2019-01-21T20:20:40.847Z,38.27
2019-01-21T20:23:11.999Z,37.37
2019-01-21T20:25:41.741Z,36.80
2019-01-21T20:28:11.077Z,37.90
2019-01-21T20:30:40.735Z,36.90
2019-01-21T20:33:10.103Z,37.90
2019-01-21T20:35:39.620Z,39.83
2019-01-21T20:38:08.884Z,39.23
2019-01-21T20:40:38.110Z,38.67
2019-01-21T20:43:07.482Z,39.80
2019-01-21T20:45:37.147Z,38.23
2019-01-21T20:48:06.408Z,38.43
2019-01-21T20:50:35.762Z,39.53
2019-01-21T20:53:06.400Z,37.83
2019-01-21T20:55:36.046Z,37.57
2019-01-21T20:58:05.668Z,37.10
2019-01-21T21:00:35.839Z,36.20
2019-01-21T21:03:05.729Z,37.23
2019-01-21T21:05:35.120Z,37.57
2019-01-21T21:08:04.767Z,37.93
2019-01-21T21:10:34.699Z,36.47
2019-01-21T21:13:04.105Z,35.83
2019-01-21T21:15:34.420Z,37.30
2019-01-21T21:18:03.771Z,37.80
2019-01-21T21:20:33.180Z,40.40
2019-01-21T21:23:02.626Z,40.40
2019-01-21T21:25:32.259Z,39.40
2019-01-21T21:28:01.711Z,38.63
2019-01-21T21:30:33.156Z,38.63
2019-01-21T21:33:02.939Z,36.97
2019-01-21T21:35:32.615Z,37.87
2019-01-21T21:38:02.046Z,37.20
2019-01-21T21:40:31.443Z,38.00
2019-01-21T21:43:00.791Z,37.00
2019-01-21T21:45:30.186Z,37.20
2019-01-21T21:48:01.263Z,38.03
2019-01-21T21:50:32.872Z,35.97
2019-01-21T21:53:02.878Z,37.50
2019-01-21T21:55:32.922Z,38.50
2019-01-21T21:58:02.241Z,38.53
2019-01-21T22:00:31.666Z,36.13
2019-01-21T22:03:01.283Z,36.80
2019-01-21T22:05:30.666Z,37.00
2019-01-21T22:08:00.042Z,38.80
2019-01-21T22:10:30.251Z,34.70
2019-01-21T22:13:00.095Z,36.27
2019-01-21T22:15:29.598Z,36.27
2019-01-21T22:18:00.137Z,37.83
2019-01-21T22:20:29.537Z,36.40
2019-01-21T22:22:58.939Z,37.67
2019-01-21T22:25:28.314Z,37.13
2019-01-21T22:27:57.709Z,36.30
2019-01-21T22:30:28.079Z,37.63
